Portada
METAR-TAF:

METAR-TAF

Aeropuertos :

Aeropuerto de Menorca

Menorca, España

latitud: 39-52N, longitud: 004-14E, altitud: 87 m

Observación

El informe se hizo hace 24 minutos, a las 14:00 UTC
Viento 12 kt del norte-noreste, variando entre norte y este-noreste
Temperatura 13°C
Humedad 62%
Presión 1029 hPa
Visibilidad 10 km o más
Escasas nubes a una altura de 2200 ft

METAR: LEMH 031400Z 03012KT 360V060 9999 FEW022 13/06 Q1029

Hora: 15:24 (14:24 UTC)

Pronóstico

El informe se hizo hace 6 horas y 24 minutos, a las 08:00 UTC
Pronóstico válido del 03 a las 09 UTC al 04 a las 09 UTC
Viento 10 kt del norte-noreste
Visibilidad 10 km o más
Nubes dispersas a una altura de 2500 ft
Evolucionando progresivamente
del 03 a las 16 UTC al 03 a las 18 UTC
Viento 5 kt del noroeste

TAF: LEMH 030800Z 0309/0409 03010KT 9999 SCT025 TX14/0312Z TN06/0406Z BECMG 0316/0318 32005KT

Observaciones y pronósticos meteorológicos de más de 4000 aeropuertos (mensajes METAR y TAF).

Los puntos amarillos y rojos representan las estaciones disponibles.

Ponga el ratón en el punto deseado para ver el nombre de la estación.

Haga clic para ver las observaciones y los pronósticos meteorológicos.

Para cambiar el mapa : haga clic en los botones verdes con una cruz de color negro para hacer un zoom, en el botón verde con un guión para alejar o en las flechas verdes para mapas adyacentes.


METAR-TAF: